sensor_id;sensor_type;location;lat;lon;timestamp;pressure;altitude;pressure_sealevel;temperature;humidity
57376;BME280;44805;45.048;5.062;2022-09-01T00:00:50;99533.22;;;20.77;63.71
57376;BME280;44805;45.048;5.062;2022-09-01T00:03:41;99551.22;;;20.88;63.92
57376;BME280;44805;45.048;5.062;2022-09-01T00:06:27;99453.28;;;20.19;64.38
57376;BME280;44805;45.048;5.062;2022-09-01T00:09:10;99455.75;;;20.20;63.84
57376;BME280;44805;45.048;5.062;2022-09-01T00:15:02;99433.56;;;19.88;64.95
57376;BME280;44805;45.048;5.062;2022-09-01T00:17:53;99447.69;;;19.95;65.47
57376;BME280;44805;45.048;5.062;2022-09-01T00:20:46;99452.16;;;20.01;65.49
57376;BME280;44805;45.048;5.062;2022-09-01T00:23:33;99438.91;;;19.88;65.25
57376;BME280;44805;45.048;5.062;2022-09-01T00:26:29;99547.75;;;20.63;64.77
57376;BME280;44805;45.048;5.062;2022-09-01T00:29:11;99422.72;;;19.83;65.59
57376;BME280;44805;45.048;5.062;2022-09-01T00:32:10;99444.41;;;19.93;65.21
57376;BME280;44805;45.048;5.062;2022-09-01T01:54:05;99587.63;;;19.49;71.82
57376;BME280;44805;45.048;5.062;2022-09-01T04:57:33;99471.84;;;16.67;81.87
57376;BME280;44805;45.048;5.062;2022-09-01T04:59:59;99503.19;;;17.00;81.61
57376;BME280;44805;45.048;5.062;2022-09-01T05:02:26;99548.78;;;17.32;82.13
57376;BME280;44805;45.048;5.062;2022-09-01T05:05:01;99427.81;;;16.58;81.26
57376;BME280;44805;45.048;5.062;2022-09-01T05:07:27;99408.16;;;16.81;80.26
57376;BME280;44805;45.048;5.062;2022-09-01T05:50:26;99452.56;;;17.28;77.91
57376;BME280;44805;45.048;5.062;2022-09-01T05:53:11;99435.75;;;17.21;77.00
57376;BME280;44805;45.048;5.062;2022-09-01T05:59:26;99437.34;;;17.09;77.30
57376;BME280;44805;45.048;5.062;2022-09-01T06:02:02;99436.13;;;17.11;77.18
57376;BME280;44805;45.048;5.062;2022-09-01T06:04:33;99446.78;;;17.18;77.31
57376;BME280;44805;45.048;5.062;2022-09-01T06:07:02;99455.84;;;17.30;77.46
57376;BME280;44805;45.048;5.062;2022-09-01T06:09:38;99567.91;;;18.04;77.34
57376;BME280;44805;45.048;5.062;2022-09-01T06:12:08;99445.22;;;17.37;77.51
57376;BME280;44805;45.048;5.062;2022-09-01T06:14:42;99518.09;;;17.84;76.72
57376;BME280;44805;45.048;5.062;2022-09-01T06:17:13;99423.06;;;17.30;76.64
57376;BME280;44805;45.048;5.062;2022-09-01T06:19:59;99447.31;;;17.48;76.76
57376;BME280;44805;45.048;5.062;2022-09-01T06:22:27;99450.34;;;17.45;76.47
57376;BME280;44805;45.048;5.062;2022-09-01T06:24:53;99515.03;;;18.00;75.47
57376;BME280;44805;45.048;5.062;2022-09-01T06:31:04;99446.94;;;17.65;75.78
57376;BME280;44805;45.048;5.062;2022-09-01T06:33:54;99578.06;;;18.68;73.76
57376;BME280;44805;45.048;5.062;2022-09-01T06:36:22;99510.38;;;18.36;73.74
57376;BME280;44805;45.048;5.062;2022-09-01T06:38:49;99500.72;;;18.41;72.77
57376;BME280;44805;45.048;5.062;2022-09-01T06:41:26;99507.72;;;18.62;72.76
57376;BME280;44805;45.048;5.062;2022-09-01T06:43:53;99469.78;;;18.47;71.72
57376;BME280;44805;45.048;5.062;2022-09-01T06:46:20;99486.78;;;18.59;71.10
57376;BME280;44805;45.048;5.062;2022-09-01T06:48:48;99465.84;;;18.70;70.83
57376;BME280;44805;45.048;5.062;2022-09-01T06:51:19;99456.00;;;18.57;70.77
57376;BME280;44805;45.048;5.062;2022-09-01T06:53:48;99542.53;;;19.14;71.14
57376;BME280;44805;45.048;5.062;2022-09-01T07:02:58;99540.00;;;19.39;70.62
57376;BME280;44805;45.048;5.062;2022-09-01T07:05:24;99465.41;;;18.93;70.62
57376;BME280;44805;45.048;5.062;2022-09-01T07:07:52;99538.81;;;19.28;71.02
57376;BME280;44805;45.048;5.062;2022-09-01T07:10:21;99458.06;;;18.81;70.77
57376;BME280;44805;45.048;5.062;2022-09-01T07:13:01;99583.06;;;19.69;71.09
57376;BME280;44805;45.048;5.062;2022-09-01T07:15:32;99470.72;;;19.06;72.43
57376;BME280;44805;45.048;5.062;2022-09-01T07:17:58;99553.09;;;19.54;71.90
57376;BME280;44805;45.048;5.062;2022-09-01T07:20:26;99534.59;;;19.59;71.13
57376;BME280;44805;45.048;5.062;2022-09-01T07:22:55;99468.63;;;19.08;70.85
57376;BME280;44805;45.048;5.062;2022-09-01T07:25:21;99479.94;;;19.10;71.55
57376;BME280;44805;45.048;5.062;2022-09-01T07:31:07;99500.34;;;19.43;71.07
57376;BME280;44805;45.048;5.062;2022-09-01T07:33:33;99471.41;;;19.40;70.70
57376;BME280;44805;45.048;5.062;2022-09-01T07:35:59;99534.47;;;19.86;70.48
57376;BME280;44805;45.048;5.062;2022-09-01T07:38:25;99488.97;;;19.67;68.75
57376;BME280;44805;45.048;5.062;2022-09-01T07:40:53;99550.38;;;20.12;69.31
57376;BME280;44805;45.048;5.062;2022-09-01T07:43:24;99474.78;;;19.60;70.14
57376;BME280;44805;45.048;5.062;2022-09-01T07:46:04;99525.31;;;20.07;69.09
57376;BME280;44805;45.048;5.062;2022-09-01T07:48:31;99540.44;;;20.20;68.18
57376;BME280;44805;45.048;5.062;2022-09-01T07:50:57;99487.00;;;19.88;69.39
57376;BME280;44805;45.048;5.062;2022-09-01T07:53:28;99489.56;;;20.01;68.22
57376;BME280;44805;45.048;5.062;2022-09-01T07:56:03;99482.78;;;20.05;67.48
57376;BME280;44805;45.048;5.062;2022-09-01T07:58:55;99592.72;;;20.79;67.39
57376;BME280;44805;45.048;5.062;2022-09-01T08:01:33;99589.41;;;20.77;66.98
57376;BME280;44805;45.048;5.062;2022-09-01T08:04:09;99454.66;;;19.96;67.41
57376;BME280;44805;45.048;5.062;2022-09-01T08:06:47;99460.16;;;20.08;67.03
57376;BME280;44805;45.048;5.062;2022-09-01T08:09:22;99462.34;;;20.17;67.07
57376;BME280;44805;45.048;5.062;2022-09-01T08:12:15;99465.06;;;20.36;65.64
57376;BME280;44805;45.048;5.062;2022-09-01T08:14:47;99473.16;;;20.48;65.88
57376;BME280;44805;45.048;5.062;2022-09-01T08:17:17;99470.34;;;20.68;64.39
57376;BME280;44805;45.048;5.062;2022-09-01T08:19:45;99478.81;;;20.65;65.34
57376;BME280;44805;45.048;5.062;2022-09-01T08:22:12;99485.72;;;20.72;64.99
57376;BME280;44805;45.048;5.062;2022-09-01T08:24:55;99469.38;;;20.80;65.28
57376;BME280;44805;45.048;5.062;2022-09-01T08:27:31;99458.47;;;20.82;64.61
57376;BME280;44805;45.048;5.062;2022-09-01T08:30:00;99576.13;;;21.69;64.47
57376;BME280;44805;45.048;5.062;2022-09-01T08:32:26;99491.78;;;21.23;63.52
57376;BME280;44805;45.048;5.062;2022-09-01T08:34:55;99446.94;;;21.00;63.80
57376;BME280;44805;45.048;5.062;2022-09-01T08:37:26;99531.66;;;21.68;63.90
57376;BME280;44805;45.048;5.062;2022-09-01T08:39:51;99475.41;;;21.31;62.59
57376;BME280;44805;45.048;5.062;2022-09-01T08:49:41;99502.25;;;21.61;62.03
57376;BME280;44805;45.048;5.062;2022-09-01T08:53:14;99482.75;;;21.84;61.90
57376;BME280;44805;45.048;5.062;2022-09-01T08:55:57;99471.53;;;22.06;60.24
57376;BME280;44805;45.048;5.062;2022-09-01T08:58:32;99592.47;;;22.82;60.09
57376;BME280;44805;45.048;5.062;2022-09-01T09:04:19;99579.00;;;23.00;59.89
57376;BME280;44805;45.048;5.062;2022-09-01T09:07:00;99572.53;;;23.25;58.21
57376;BME280;44805;45.048;5.062;2022-09-01T09:09:39;99462.13;;;22.86;58.16
57376;BME280;44805;45.048;5.062;2022-09-01T09:15:50;99576.44;;;23.69;53.51
57376;BME280;44805;45.048;5.062;2022-09-01T09:18:36;99458.72;;;23.14;53.62
57376;BME280;44805;45.048;5.062;2022-09-01T09:21:14;99513.81;;;23.69;53.52
57376;BME280;44805;45.048;5.062;2022-09-01T09:33:04;99444.44;;;23.82;51.52
57376;BME280;44805;45.048;5.062;2022-09-01T09:35:38;99439.22;;;23.76;51.06
57376;BME280;44805;45.048;5.062;2022-09-01T09:41:19;99435.75;;;23.92;50.96
57376;BME280;44805;45.048;5.062;2022-09-01T09:43:48;99539.53;;;24.73;50.54
57376;BME280;44805;45.048;5.062;2022-09-01T09:54:10;99549.31;;;24.96;49.40
57376;BME280;44805;45.048;5.062;2022-09-01T09:56:41;99444.72;;;24.48;48.90
57376;BME280;44805;45.048;5.062;2022-09-01T09:59:41;99533.09;;;25.29;48.20
57376;BME280;44805;45.048;5.062;2022-09-01T10:02:39;99467.25;;;24.81;49.21
57376;BME280;44805;45.048;5.062;2022-09-01T10:05:43;99544.63;;;25.25;48.97
57376;BME280;44805;45.048;5.062;2022-09-01T10:10:50;99449.25;;;25.04;48.61
57376;BME280;44805;45.048;5.062;2022-09-01T10:13:21;99433.69;;;25.11;47.35
57376;BME280;44805;45.048;5.062;2022-09-01T10:15:55;99402.50;;;25.15;46.75
57376;BME280;44805;45.048;5.062;2022-09-01T10:19:00;99473.13;;;25.66;46.59
57376;BME280;44805;45.048;5.062;2022-09-01T10:21:38;99402.22;;;25.39;45.79
57376;BME280;44805;45.048;5.062;2022-09-01T10:24:18;99513.78;;;26.09;45.87
57376;BME280;44805;45.048;5.062;2022-09-01T10:26:52;99404.16;;;25.70;44.81
57376;BME280;44805;45.048;5.062;2022-09-01T10:32:50;99384.03;;;25.51;45.05
57376;BME280;44805;45.048;5.062;2022-09-01T10:35:29;99468.88;;;25.97;45.03
57376;BME280;44805;45.048;5.062;2022-09-01T10:37:59;99401.22;;;25.45;44.80
57376;BME280;44805;45.048;5.062;2022-09-01T10:53:51;99406.63;;;26.04;41.91
57376;BME280;44805;45.048;5.062;2022-09-01T13:31:04;99349.47;;;28.10;36.12
57376;BME280;44805;45.048;5.062;2022-09-01T13:38:38;99340.28;;;28.06;35.51
57376;BME280;44805;45.048;5.062;2022-09-01T13:41:08;99286.19;;;27.85;35.70
57376;BME280;44805;45.048;5.062;2022-09-01T13:44:20;99398.13;;;28.56;36.58
57376;BME280;44805;45.048;5.062;2022-09-01T13:46:46;99345.13;;;28.19;36.01
57376;BME280;44805;45.048;5.062;2022-09-01T13:49:11;99289.44;;;27.77;34.71
57376;BME280;44805;45.048;5.062;2022-09-01T13:51:37;99284.81;;;27.78;34.86
57376;BME280;44805;45.048;5.062;2022-09-01T13:54:03;99305.41;;;27.99;35.22
57376;BME280;44805;45.048;5.062;2022-09-01T13:56:28;99325.09;;;28.25;34.55
57376;BME280;44805;45.048;5.062;2022-09-01T13:58:54;99382.72;;;28.46;34.04
57376;BME280;44805;45.048;5.062;2022-09-01T14:01:20;99316.47;;;28.08;33.44
57376;BME280;44805;45.048;5.062;2022-09-01T14:04:14;99380.72;;;28.72;33.12
57376;BME280;44805;45.048;5.062;2022-09-01T14:06:53;99335.34;;;28.28;32.32
57376;BME280;44805;45.048;5.062;2022-09-01T14:12:52;99319.91;;;28.34;33.07
57376;BME280;44805;45.048;5.062;2022-09-01T14:18:45;99266.72;;;27.83;34.20
57376;BME280;44805;45.048;5.062;2022-09-01T14:29:54;99250.19;;;27.95;33.21
57376;BME280;44805;45.048;5.062;2022-09-01T14:32:47;99306.09;;;28.35;32.89
57376;BME280;44805;45.048;5.062;2022-09-01T14:35:41;99295.81;;;28.38;32.48
57376;BME280;44805;45.048;5.062;2022-09-01T14:56:46;99332.06;;;28.52;31.48
57376;BME280;44805;45.048;5.062;2022-09-01T15:06:03;99279.88;;;28.26;30.52
57376;BME280;44805;45.048;5.062;2022-09-01T15:08:42;99338.75;;;28.70;31.33
57376;BME280;44805;45.048;5.062;2022-09-01T15:53:39;99288.63;;;28.72;31.44
